sensor_id;sensor_type;location;lat;lon;timestamp;pressure;altitude;pressure_sealevel;temperature;humidity
34328;BME280;20588;48.840;10.064;2023-03-04T00:01:30;96940.25;;;-2.66;nan
34328;BME280;20588;48.840;10.064;2023-03-04T00:03:56;96942.22;;;-2.70;nan
34328;BME280;20588;48.840;10.064;2023-03-04T00:06:22;96947.38;;;-2.71;nan
34328;BME280;20588;48.840;10.064;2023-03-04T00:08:48;96939.03;;;-2.72;nan
34328;BME280;20588;48.840;10.064;2023-03-04T00:11:14;96937.56;;;-2.74;nan
34328;BME280;20588;48.840;10.064;2023-03-04T00:13:40;96941.09;;;-2.77;nan
34328;BME280;20588;48.840;10.064;2023-03-04T00:16:06;96939.72;;;-2.81;nan
34328;BME280;20588;48.840;10.064;2023-03-04T00:18:32;96937.44;;;-2.84;nan
34328;BME280;20588;48.840;10.064;2023-03-04T00:20:59;96935.97;;;-2.86;nan
34328;BME280;20588;48.840;10.064;2023-03-04T00:23:25;96937.00;;;-2.89;nan
34328;BME280;20588;48.840;10.064;2023-03-04T00:25:51;96935.53;;;-2.91;nan
34328;BME280;20588;48.840;10.064;2023-03-04T00:28:17;96938.16;;;-2.93;nan
34328;BME280;20588;48.840;10.064;2023-03-04T00:30:43;96937.56;;;-2.96;nan
34328;BME280;20588;48.840;10.064;2023-03-04T00:33:09;96933.59;;;-2.99;nan
34328;BME280;20588;48.840;10.064;2023-03-04T00:35:35;96934.47;;;-3.00;nan
34328;BME280;20588;48.840;10.064;2023-03-04T00:38:01;96935.41;;;-3.01;nan
34328;BME280;20588;48.840;10.064;2023-03-04T00:40:27;96938.03;;;-3.02;nan
34328;BME280;20588;48.840;10.064;2023-03-04T00:42:53;96936.69;;;-3.06;nan
34328;BME280;20588;48.840;10.064;2023-03-04T00:45:19;96932.66;;;-3.09;nan
34328;BME280;20588;48.840;10.064;2023-03-04T00:47:45;96933.81;;;-3.13;nan
34328;BME280;20588;48.840;10.064;2023-03-04T00:50:11;96931.53;;;-3.16;nan
34328;BME280;20588;48.840;10.064;2023-03-04T00:52:37;96931.78;;;-3.19;nan
34328;BME280;20588;48.840;10.064;2023-03-04T00:55:04;96928.56;;;-3.21;nan
34328;BME280;20588;48.840;10.064;2023-03-04T00:57:30;96929.59;;;-3.23;nan
34328;BME280;20588;48.840;10.064;2023-03-04T00:59:56;96934.06;;;-3.27;nan
34328;BME280;20588;48.840;10.064;2023-03-04T01:02:22;96925.84;;;-3.29;nan
34328;BME280;20588;48.840;10.064;2023-03-04T01:04:48;96925.97;;;-3.30;nan
34328;BME280;20588;48.840;10.064;2023-03-04T01:07:14;96928.38;;;-3.29;nan
34328;BME280;20588;48.840;10.064;2023-03-04T01:09:40;96927.78;;;-3.32;nan
34328;BME280;20588;48.840;10.064;2023-03-04T01:12:07;96920.47;;;-3.35;nan
34328;BME280;20588;48.840;10.064;2023-03-04T01:14:33;96914.06;;;-3.39;nan
34328;BME280;20588;48.840;10.064;2023-03-04T01:16:59;96909.94;;;-3.40;nan
34328;BME280;20588;48.840;10.064;2023-03-04T01:19:25;96904.25;;;-3.42;nan
34328;BME280;20588;48.840;10.064;2023-03-04T01:21:51;96905.94;;;-3.43;nan
34328;BME280;20588;48.840;10.064;2023-03-04T01:24:18;96900.22;;;-3.45;nan
34328;BME280;20588;48.840;10.064;2023-03-04T01:26:44;96897.59;;;-3.43;nan
34328;BME280;20588;48.840;10.064;2023-03-04T01:29:10;96901.03;;;-3.44;nan
34328;BME280;20588;48.840;10.064;2023-03-04T01:31:36;96896.81;;;-3.44;nan
34328;BME280;20588;48.840;10.064;2023-03-04T01:34:02;96896.94;;;-3.45;nan
34328;BME280;20588;48.840;10.064;2023-03-04T01:36:28;96896.94;;;-3.45;nan
34328;BME280;20588;48.840;10.064;2023-03-04T01:38:54;96898.41;;;-3.43;nan
34328;BME280;20588;48.840;10.064;2023-03-04T01:41:24;96898.53;;;-3.44;nan
34328;BME280;20588;48.840;10.064;2023-03-04T01:43:51;96894.41;;;-3.45;nan
34328;BME280;20588;48.840;10.064;2023-03-04T01:46:17;96892.03;;;-3.47;nan
34328;BME280;20588;48.840;10.064;2023-03-04T01:48:44;96892.38;;;-3.51;nan
34328;BME280;20588;48.840;10.064;2023-03-04T01:51:15;96897.50;;;-3.53;nan
34328;BME280;20588;48.840;10.064;2023-03-04T01:53:43;96898.41;;;-3.54;nan
34328;BME280;20588;48.840;10.064;2023-03-04T01:56:20;96899.31;;;-3.55;nan
34328;BME280;20588;48.840;10.064;2023-03-04T02:01:32;96897.03;;;-3.58;nan
34328;BME280;20588;48.840;10.064;2023-03-04T02:03:58;96893.84;;;-3.60;nan
34328;BME280;20588;48.840;10.064;2023-03-04T02:06:24;96897.97;;;-3.59;nan
34328;BME280;20588;48.840;10.064;2023-03-04T02:08:50;96888.13;;;-3.62;nan
34328;BME280;20588;48.840;10.064;2023-03-04T02:11:16;96899.09;;;-3.63;nan
34328;BME280;20588;48.840;10.064;2023-03-04T02:13:42;96895.78;;;-3.63;nan
34328;BME280;20588;48.840;10.064;2023-03-04T02:16:08;96891.78;;;-3.66;nan
34328;BME280;20588;48.840;10.064;2023-03-04T02:18:34;96892.69;;;-3.67;nan
34328;BME280;20588;48.840;10.064;2023-03-04T02:21:18;96898.06;;;-3.72;nan
34328;BME280;20588;48.840;10.064;2023-03-04T02:26:29;96891.88;;;-3.79;nan
34328;BME280;20588;48.840;10.064;2023-03-04T02:28:58;96886.06;;;-3.79;nan
34328;BME280;20588;48.840;10.064;2023-03-04T02:33:55;96883.09;;;-3.84;nan
34328;BME280;20588;48.840;10.064;2023-03-04T02:36:22;96889.25;;;-3.88;nan
34328;BME280;20588;48.840;10.064;2023-03-04T02:38:50;96893.34;;;-3.87;nan
34328;BME280;20588;48.840;10.064;2023-03-04T02:41:21;96896.78;;;-3.88;nan
34328;BME280;20588;48.840;10.064;2023-03-04T02:43:50;96897.91;;;-3.92;nan
34328;BME280;20588;48.840;10.064;2023-03-04T02:46:17;96892.22;;;-3.94;nan
34328;BME280;20588;48.840;10.064;2023-03-04T02:48:43;96896.88;;;-4.01;nan
34328;BME280;20588;48.840;10.064;2023-03-04T02:51:10;96892.31;;;-4.07;nan
34328;BME280;20588;48.840;10.064;2023-03-04T02:53:36;96895.97;;;-4.11;nan
34328;BME280;20588;48.840;10.064;2023-03-04T02:56:02;96895.97;;;-4.11;nan
34328;BME280;20588;48.840;10.064;2023-03-04T02:58:28;96892.75;;;-4.13;nan
34328;BME280;20588;48.840;10.064;2023-03-04T03:00:54;96893.78;;;-4.15;nan
34328;BME280;20588;48.840;10.064;2023-03-04T03:03:21;96889.66;;;-4.16;nan
34328;BME280;20588;48.840;10.064;2023-03-04T03:05:47;96889.88;;;-4.19;nan
34328;BME280;20588;48.840;10.064;2023-03-04T03:08:13;96885.78;;;-4.20;nan
34328;BME280;20588;48.840;10.064;2023-03-04T03:10:39;96874.34;;;-4.24;nan
34328;BME280;20588;48.840;10.064;2023-03-04T03:13:05;96885.06;;;-4.22;nan
34328;BME280;20588;48.840;10.064;2023-03-04T03:15:31;96882.88;;;-4.27;nan
34328;BME280;20588;48.840;10.064;2023-03-04T03:17:57;96884.84;;;-4.30;nan
34328;BME280;20588;48.840;10.064;2023-03-04T03:20:23;96883.44;;;-4.34;nan
34328;BME280;20588;48.840;10.064;2023-03-04T03:22:49;96891.31;;;-4.39;nan
34328;BME280;20588;48.840;10.064;2023-03-04T03:25:16;96893.22;;;-4.42;nan
34328;BME280;20588;48.840;10.064;2023-03-04T03:27:42;96895.94;;;-4.45;nan
34328;BME280;20588;48.840;10.064;2023-03-04T03:30:11;96890.16;;;-4.46;nan
34328;BME280;20588;48.840;10.064;2023-03-04T03:32:37;96890.25;;;-4.47;nan
34328;BME280;20588;48.840;10.064;2023-03-04T03:35:04;96892.97;;;-4.50;nan
34328;BME280;20588;48.840;10.064;2023-03-04T03:37:30;96886.34;;;-4.51;nan
34328;BME280;20588;48.840;10.064;2023-03-04T03:39:56;96888.28;;;-4.55;nan
34328;BME280;20588;48.840;10.064;2023-03-04T03:42:22;96889.41;;;-4.59;nan
34328;BME280;20588;48.840;10.064;2023-03-04T03:44:48;96889.63;;;-4.62;nan
34328;BME280;20588;48.840;10.064;2023-03-04T03:47:15;96889.06;;;-4.65;nan
34328;BME280;20588;48.840;10.064;2023-03-04T03:49:41;96881.03;;;-4.70;nan
34328;BME280;20588;48.840;10.064;2023-03-04T03:52:07;96880.22;;;-4.71;nan
34328;BME280;20588;48.840;10.064;2023-03-04T03:54:33;96879.66;;;-4.74;nan
34328;BME280;20588;48.840;10.064;2023-03-04T03:57:00;96883.28;;;-4.78;nan
34328;BME280;20588;48.840;10.064;2023-03-04T03:59:26;96881.69;;;-4.79;nan
34328;BME280;20588;48.840;10.064;2023-03-04T04:01:52;96881.09;;;-4.83;nan
34328;BME280;20588;48.840;10.064;2023-03-04T04:04:18;96879.50;;;-4.84;nan
34328;BME280;20588;48.840;10.064;2023-03-04T04:06:44;96886.31;;;-4.86;nan
34328;BME280;20588;48.840;10.064;2023-03-04T04:09:10;96874.78;;;-4.88;nan
34328;BME280;20588;48.840;10.064;2023-03-04T04:11:36;96873.22;;;-4.89;nan
34328;BME280;20588;48.840;10.064;2023-03-04T04:14:02;96879.22;;;-4.92;nan
34328;BME280;20588;48.840;10.064;2023-03-04T04:16:29;96889.34;;;-4.93;nan
34328;BME280;20588;48.840;10.064;2023-03-04T04:18:55;96881.94;;;-4.95;nan
34328;BME280;20588;48.840;10.064;2023-03-04T04:21:21;96884.56;;;-4.96;nan
34328;BME280;20588;48.840;10.064;2023-03-04T04:23:47;96885.56;;;-4.99;nan
34328;BME280;20588;48.840;10.064;2023-03-04T04:26:13;96879.84;;;-5.01;nan
34328;BME280;20588;48.840;10.064;2023-03-04T04:28:39;96876.56;;;-5.01;nan
34328;BME280;20588;48.840;10.064;2023-03-04T04:31:08;96880.06;;;-5.04;nan
34328;BME280;20588;48.840;10.064;2023-03-04T04:33:35;96879.41;;;-5.06;nan
34328;BME280;20588;48.840;10.064;2023-03-04T04:36:01;96881.19;;;-5.08;nan
34328;BME280;20588;48.840;10.064;2023-03-04T04:38:29;96886.31;;;-5.09;nan
34328;BME280;20588;48.840;10.064;2023-03-04T04:40:59;96886.72;;;-5.15;nan
34328;BME280;20588;48.840;10.064;2023-03-04T04:43:25;96884.22;;;-5.15;nan
34328;BME280;20588;48.840;10.064;2023-03-04T04:45:52;96876.00;;;-5.17;nan
34328;BME280;20588;48.840;10.064;2023-03-04T04:48:18;96882.03;;;-5.20;nan
34328;BME280;20588;48.840;10.064;2023-03-04T04:50:44;96884.84;;;-5.24;nan
34328;BME280;20588;48.840;10.064;2023-03-04T04:53:11;96875.03;;;-5.27;nan
34328;BME280;20588;48.840;10.064;2023-03-04T04:55:38;96882.56;;;-5.27;nan
34328;BME280;20588;48.840;10.064;2023-03-04T04:58:06;96885.06;;;-5.27;nan
34328;BME280;20588;48.840;10.064;2023-03-04T05:00:32;96884.47;;;-5.31;nan
34328;BME280;20588;48.840;10.064;2023-03-04T05:02:58;96883.75;;;-5.33;nan
34328;BME280;20588;48.840;10.064;2023-03-04T05:05:24;96890.50;;;-5.33;nan
34328;BME280;20588;48.840;10.064;2023-03-04T05:07:50;96888.00;;;-5.33;nan
34328;BME280;20588;48.840;10.064;2023-03-04T05:10:16;96894.09;;;-5.37;nan
34328;BME280;20588;48.840;10.064;2023-03-04T05:12:43;96889.28;;;-5.40;nan
34328;BME280;20588;48.840;10.064;2023-03-04T05:15:10;96898.53;;;-5.41;nan
34328;BME280;20588;48.840;10.064;2023-03-04T05:17:36;96891.13;;;-5.42;nan
34328;BME280;20588;48.840;10.064;2023-03-04T05:20:02;96898.75;;;-5.44;nan
34328;BME280;20588;48.840;10.064;2023-03-04T05:22:29;96898.84;;;-5.45;nan
34328;BME280;20588;48.840;10.064;2023-03-04T05:24:55;96888.94;;;-5.47;nan
34328;BME280;20588;48.840;10.064;2023-03-04T05:27:22;96893.13;;;-5.47;nan
34328;BME280;20588;48.840;10.064;2023-03-04T05:29:48;96901.56;;;-5.48;nan
34328;BME280;20588;48.840;10.064;2023-03-04T05:32:14;96898.75;;;-5.44;nan
34328;BME280;20588;48.840;10.064;2023-03-04T05:34:40;96900.03;;;-5.51;nan
34328;BME280;20588;48.840;10.064;2023-03-04T05:37:06;96900.75;;;-5.49;nan
34328;BME280;20588;48.840;10.064;2023-03-04T05:39:32;96898.34;;;-5.50;nan
34328;BME280;20588;48.840;10.064;2023-03-04T05:41:58;96900.94;;;-5.52;nan
34328;BME280;20588;48.840;10.064;2023-03-04T05:44:24;96900.13;;;-5.53;nan
34328;BME280;20588;48.840;10.064;2023-03-04T05:46:50;96907.44;;;-5.49;nan
34328;BME280;20588;48.840;10.064;2023-03-04T05:49:16;96912.47;;;-5.49;nan
34328;BME280;20588;48.840;10.064;2023-03-04T05:51:42;96906.66;;;-5.50;nan
34328;BME280;20588;48.840;10.064;2023-03-04T05:54:08;96904.94;;;-5.49;nan
34328;BME280;20588;48.840;10.064;2023-03-04T05:56:34;96905.34;;;-5.43;nan
34328;BME280;20588;48.840;10.064;2023-03-04T05:59:00;96909.00;;;-5.23;nan
34328;BME280;20588;48.840;10.064;2023-03-04T06:01:26;96905.88;;;-5.14;nan
34328;BME280;20588;48.840;10.064;2023-03-04T06:03:52;96899.06;;;-5.12;nan
34328;BME280;20588;48.840;10.064;2023-03-04T06:06:18;96906.38;;;-5.09;nan
34328;BME280;20588;48.840;10.064;2023-03-04T06:08:44;96908.47;;;-5.03;nan
34328;BME280;20588;48.840;10.064;2023-03-04T06:11:11;96908.75;;;-4.95;nan
34328;BME280;20588;48.840;10.064;2023-03-04T06:13:37;96909.22;;;-4.90;nan
34328;BME280;20588;48.840;10.064;2023-03-04T06:16:03;96908.22;;;-4.88;nan
34328;BME280;20588;48.840;10.064;2023-03-04T06:18:29;96916.19;;;-4.83;nan
34328;BME280;20588;48.840;10.064;2023-03-04T06:20:57;96918.38;;;-4.78;nan
34328;BME280;20588;48.840;10.064;2023-03-04T06:23:23;96925.72;;;-4.75;nan
34328;BME280;20588;48.840;10.064;2023-03-04T06:25:54;96927.00;;;-4.70;nan
34328;BME280;20588;48.840;10.064;2023-03-04T06:28:20;96930.56;;;-4.61;nan
34328;BME280;20588;48.840;10.064;2023-03-04T06:30:46;96933.13;;;-4.50;nan
34328;BME280;20588;48.840;10.064;2023-03-04T06:33:12;96947.44;;;-4.40;nan
34328;BME280;20588;48.840;10.064;2023-03-04T06:35:39;96944.88;;;-4.27;nan
34328;BME280;20588;48.840;10.064;2023-03-04T06:38:05;96942.59;;;-4.19;nan
34328;BME280;20588;48.840;10.064;2023-03-04T06:40:31;96943.34;;;-4.06;nan
34328;BME280;20588;48.840;10.064;2023-03-04T06:42:57;96953.28;;;-3.94;nan
34328;BME280;20588;48.840;10.064;2023-03-04T06:45:23;96950.47;;;-3.78;nan
34328;BME280;20588;48.840;10.064;2023-03-04T06:47:49;96944.09;;;-3.60;nan
34328;BME280;20588;48.840;10.064;2023-03-04T06:50:15;96943.19;;;-3.48;nan
34328;BME280;20588;48.840;10.064;2023-03-04T06:52:41;96945.63;;;-3.35;nan
34328;BME280;20588;48.840;10.064;2023-03-04T06:55:07;96953.84;;;-3.22;nan
34328;BME280;20588;48.840;10.064;2023-03-04T06:57:34;96960.56;;;-3.12;nan
34328;BME280;20588;48.840;10.064;2023-03-04T07:00:00;96964.69;;;-3.00;nan
34328;BME280;20588;48.840;10.064;2023-03-04T07:02:28;96967.66;;;-2.84;nan
34328;BME280;20588;48.840;10.064;2023-03-04T07:04:54;96962.25;;;-2.68;nan
34328;BME280;20588;48.840;10.064;2023-03-04T07:07:20;96968.28;;;-2.49;nan
34328;BME280;20588;48.840;10.064;2023-03-04T07:09:46;96971.88;;;-2.31;nan
34328;BME280;20588;48.840;10.064;2023-03-04T07:12:12;96963.31;;;-2.08;nan
34328;BME280;20588;48.840;10.064;2023-03-04T07:14:38;96967.25;;;-1.94;nan
34328;BME280;20588;48.840;10.064;2023-03-04T07:17:07;96970.94;;;-1.77;nan
34328;BME280;20588;48.840;10.064;2023-03-04T07:19:33;96969.72;;;-1.62;nan
34328;BME280;20588;48.840;10.064;2023-03-04T07:21:59;96966.97;;;-1.50;nan
34328;BME280;20588;48.840;10.064;2023-03-04T07:24:25;96972.53;;;-1.35;nan
34328;BME280;20588;48.840;10.064;2023-03-04T07:26:51;96976.56;;;-1.23;nan
34328;BME280;20588;48.840;10.064;2023-03-04T07:29:17;96979.00;;;-1.12;nan
34328;BME280;20588;48.840;10.064;2023-03-04T07:31:43;96990.88;;;-1.03;nan
34328;BME280;20588;48.840;10.064;2023-03-04T07:34:12;96993.41;;;-0.94;nan
34328;BME280;20588;48.840;10.064;2023-03-04T07:36:40;96993.97;;;-0.90;nan
34328;BME280;20588;48.840;10.064;2023-03-04T07:39:07;96997.56;;;-0.83;nan
34328;BME280;20588;48.840;10.064;2023-03-04T07:41:33;97000.81;;;-0.72;nan
34328;BME280;20588;48.840;10.064;2023-03-04T07:44:01;96998.03;;;-0.69;nan
34328;BME280;20588;48.840;10.064;2023-03-04T07:46:28;96997.38;;;-0.61;nan
34328;BME280;20588;48.840;10.064;2023-03-04T07:48:55;96991.13;;;-0.57;nan
34328;BME280;20588;48.840;10.064;2023-03-04T07:51:23;96998.88;;;-0.49;nan
34328;BME280;20588;48.840;10.064;2023-03-04T07:53:52;96994.63;;;-0.49;nan
34328;BME280;20588;48.840;10.064;2023-03-04T07:56:22;96991.97;;;-0.47;nan
34328;BME280;20588;48.840;10.064;2023-03-04T07:58:49;96998.75;;;-0.38;nan
34328;BME280;20588;48.840;10.064;2023-03-04T08:01:21;97003.44;;;-0.34;nan
34328;BME280;20588;48.840;10.064;2023-03-04T08:03:47;96999.69;;;-0.30;nan
34328;BME280;20588;48.840;10.064;2023-03-04T08:06:15;97005.03;;;-0.23;nan
34328;BME280;20588;48.840;10.064;2023-03-04T08:08:42;97011.13;;;-0.26;nan
34328;BME280;20588;48.840;10.064;2023-03-04T08:11:14;97018.31;;;-0.21;nan
34328;BME280;20588;48.840;10.064;2023-03-04T08:13:40;97011.97;;;-0.16;nan
34328;BME280;20588;48.840;10.064;2023-03-04T08:16:07;97007.03;;;-0.08;nan
34328;BME280;20588;48.840;10.064;2023-03-04T08:18:33;97008.25;;;-0.02;nan
34328;BME280;20588;48.840;10.064;2023-03-04T08:20:59;97006.13;;;0.03;nan
34328;BME280;20588;48.840;10.064;2023-03-04T08:23:25;97008.25;;;0.08;nan
34328;BME280;20588;48.840;10.064;2023-03-04T08:25:51;97010.13;;;0.15;nan
34328;BME280;20588;48.840;10.064;2023-03-04T08:28:17;97010.50;;;0.20;nan
34328;BME280;20588;48.840;10.064;2023-03-04T08:30:44;97008.38;;;0.25;nan
34328;BME280;20588;48.840;10.064;2023-03-04T08:33:10;97012.63;;;0.34;nan
34328;BME280;20588;48.840;10.064;2023-03-04T08:35:38;97009.56;;;0.40;nan
34328;BME280;20588;48.840;10.064;2023-03-04T08:38:04;97016.75;;;0.45;nan
34328;BME280;20588;48.840;10.064;2023-03-04T08:40:30;97011.28;;;0.49;nan
34328;BME280;20588;48.840;10.064;2023-03-04T08:42:57;97014.63;;;0.50;nan
34328;BME280;20588;48.840;10.064;2023-03-04T08:45:23;97025.25;;;0.53;nan
34328;BME280;20588;48.840;10.064;2023-03-04T08:47:50;97026.97;;;0.62;nan
34328;BME280;20588;48.840;10.064;2023-03-04T08:50:16;97030.97;;;0.74;nan
34328;BME280;20588;48.840;10.064;2023-03-04T08:52:42;97021.47;;;0.76;nan
34328;BME280;20588;48.840;10.064;2023-03-04T08:55:08;97027.59;;;0.83;nan
34328;BME280;20588;48.840;10.064;2023-03-04T08:57:34;97022.00;;;0.89;nan
34328;BME280;20588;48.840;10.064;2023-03-04T09:00:00;97019.69;;;0.96;nan
34328;BME280;20588;48.840;10.064;2023-03-04T09:02:26;97024.06;;;1.03;nan
34328;BME280;20588;48.840;10.064;2023-03-04T09:04:52;97023.91;;;1.14;nan
34328;BME280;20588;48.840;10.064;2023-03-04T09:07:18;97023.19;;;1.22;nan
34328;BME280;20588;48.840;10.064;2023-03-04T09:09:44;97025.84;;;1.30;nan
34328;BME280;20588;48.840;10.064;2023-03-04T09:12:10;97019.41;;;1.35;nan
34328;BME280;20588;48.840;10.064;2023-03-04T09:14:37;97021.91;;;1.45;nan
34328;BME280;20588;48.840;10.064;2023-03-04T09:17:04;97022.16;;;1.51;nan
34328;BME280;20588;48.840;10.064;2023-03-04T09:19:31;97023.44;;;1.55;nan
34328;BME280;20588;48.840;10.064;2023-03-04T09:21:57;97020.28;;;1.71;nan
34328;BME280;20588;48.840;10.064;2023-03-04T09:24:26;97018.09;;;1.76;nan
34328;BME280;20588;48.840;10.064;2023-03-04T09:26:53;97016.47;;;1.84;nan
34328;BME280;20588;48.840;10.064;2023-03-04T09:29:20;97018.56;;;1.89;nan
34328;BME280;20588;48.840;10.064;2023-03-04T09:31:46;97020.53;;;1.95;nan
34328;BME280;20588;48.840;10.064;2023-03-04T09:34:12;97023.13;;;2.03;nan
34328;BME280;20588;48.840;10.064;2023-03-04T09:36:38;97015.38;;;2.05;nan
34328;BME280;20588;48.840;10.064;2023-03-04T09:39:04;97019.22;;;2.09;nan
34328;BME280;20588;48.840;10.064;2023-03-04T09:41:46;97016.59;;;2.18;nan
34328;BME280;20588;48.840;10.064;2023-03-04T09:44:33;97023.16;;;2.21;nan
34328;BME280;20588;48.840;10.064;2023-03-04T09:47:14;97018.50;;;2.16;nan
34328;BME280;20588;48.840;10.064;2023-03-04T09:49:44;97017.94;;;2.22;nan
34328;BME280;20588;48.840;10.064;2023-03-04T10:01:16;97028.81;;;2.15;nan
34328;BME280;20588;48.840;10.064;2023-03-04T10:03:50;97024.50;;;2.15;nan
34328;BME280;20588;48.840;10.064;2023-03-04T10:06:20;97019.09;;;2.10;nan
34328;BME280;20588;48.840;10.064;2023-03-04T10:09:13;97021.41;;;2.04;nan
34328;BME280;20588;48.840;10.064;2023-03-04T10:19:56;97014.88;;;2.01;nan
34328;BME280;20588;48.840;10.064;2023-03-04T10:27:42;97009.81;;;2.01;nan
34328;BME280;20588;48.840;10.064;2023-03-04T10:32:55;97015.22;;;2.06;nan
34328;BME280;20588;48.840;10.064;2023-03-04T10:37:50;97015.22;;;2.06;nan
34328;BME280;20588;48.840;10.064;2023-03-04T10:40:24;97012.53;;;2.08;nan
34328;BME280;20588;48.840;10.064;2023-03-04T10:42:50;97016.69;;;2.09;nan
34328;BME280;20588;48.840;10.064;2023-03-04T10:45:24;97018.81;;;2.13;nan
34328;BME280;20588;48.840;10.064;2023-03-04T10:47:55;97016.75;;;2.17;nan
34328;BME280;20588;48.840;10.064;2023-03-04T10:50:26;97016.19;;;2.23;nan
34328;BME280;20588;48.840;10.064;2023-03-04T10:52:53;97008.63;;;2.31;nan
34328;BME280;20588;48.840;10.064;2023-03-04T10:55:27;97004.22;;;2.33;nan
34328;BME280;20588;48.840;10.064;2023-03-04T10:58:00;97003.25;;;2.34;nan
34328;BME280;20588;48.840;10.064;2023-03-04T11:00:35;97002.97;;;2.37;nan
34328;BME280;20588;48.840;10.064;2023-03-04T11:06:18;96997.81;;;2.46;nan
34328;BME280;20588;48.840;10.064;2023-03-04T11:08:52;96998.03;;;2.53;nan
34328;BME280;20588;48.840;10.064;2023-03-04T11:11:23;96989.66;;;2.60;nan
34328;BME280;20588;48.840;10.064;2023-03-04T11:14:00;96987.81;;;2.70;nan
34328;BME280;20588;48.840;10.064;2023-03-04T11:16:31;96985.50;;;2.85;nan
34328;BME280;20588;48.840;10.064;2023-03-04T11:19:05;96983.88;;;3.09;nan
34328;BME280;20588;48.840;10.064;2023-03-04T11:21:39;96982.38;;;3.24;nan
34328;BME280;20588;48.840;10.064;2023-03-04T11:24:21;96986.06;;;3.38;nan
34328;BME280;20588;48.840;10.064;2023-03-04T11:26:57;96977.66;;;3.45;nan
34328;BME280;20588;48.840;10.064;2023-03-04T11:29:42;96982.47;;;3.56;nan
34328;BME280;20588;48.840;10.064;2023-03-04T11:32:27;96977.25;;;3.66;nan
34328;BME280;20588;48.840;10.064;2023-03-04T11:37:47;96973.66;;;3.85;nan
34328;BME280;20588;48.840;10.064;2023-03-04T11:48:53;96969.19;;;3.87;nan
34328;BME280;20588;48.840;10.064;2023-03-04T11:51:26;96969.50;;;3.92;nan
34328;BME280;20588;48.840;10.064;2023-03-04T11:54:16;96966.81;;;3.93;nan
34328;BME280;20588;48.840;10.064;2023-03-04T11:56:50;96966.63;;;3.87;nan
34328;BME280;20588;48.840;10.064;2023-03-04T12:02:22;96953.09;;;3.70;nan
34328;BME280;20588;48.840;10.064;2023-03-04T12:05:11;96947.69;;;3.57;nan
34328;BME280;20588;48.840;10.064;2023-03-04T12:07:50;96946.84;;;3.48;nan
34328;BME280;20588;48.840;10.064;2023-03-04T12:10:43;96954.00;;;3.53;nan
34328;BME280;20588;48.840;10.064;2023-03-04T12:13:41;96948.75;;;3.46;nan
34328;BME280;20588;48.840;10.064;2023-03-04T12:16:52;96934.59;;;3.44;nan
34328;BME280;20588;48.840;10.064;2023-03-04T12:19:26;96929.66;;;3.34;nan
34328;BME280;20588;48.840;10.064;2023-03-04T12:22:22;96935.72;;;3.41;nan
34328;BME280;20588;48.840;10.064;2023-03-04T12:36:11;96912.22;;;3.55;nan
34328;BME280;20588;48.840;10.064;2023-03-04T12:38:56;96902.84;;;3.64;nan
34328;BME280;20588;48.840;10.064;2023-03-04T12:41:29;96904.78;;;3.78;nan
34328;BME280;20588;48.840;10.064;2023-03-04T12:44:14;96895.41;;;3.79;nan
34328;BME280;20588;48.840;10.064;2023-03-04T12:47:01;96891.72;;;3.81;nan
34328;BME280;20588;48.840;10.064;2023-03-04T12:54:44;96889.00;;;3.99;nan
34328;BME280;20588;48.840;10.064;2023-03-04T12:57:16;96884.72;;;3.99;nan
34328;BME280;20588;48.840;10.064;2023-03-04T13:10:29;96879.78;;;4.30;nan
34328;BME280;20588;48.840;10.064;2023-03-04T13:12:58;96881.19;;;4.40;nan
34328;BME280;20588;48.840;10.064;2023-03-04T13:15:36;96881.50;;;4.45;nan
34328;BME280;20588;48.840;10.064;2023-03-04T13:18:32;96877.66;;;4.49;nan
34328;BME280;20588;48.840;10.064;2023-03-04T13:23:36;96886.84;;;4.66;nan
34328;BME280;20588;48.840;10.064;2023-03-04T13:26:19;96878.91;;;4.53;nan
34328;BME280;20588;48.840;10.064;2023-03-04T13:28:52;96884.97;;;4.52;nan
34328;BME280;20588;48.840;10.064;2023-03-04T13:31:22;96880.03;;;4.51;nan
34328;BME280;20588;48.840;10.064;2023-03-04T13:33:54;96880.53;;;4.46;nan
34328;BME280;20588;48.840;10.064;2023-03-04T13:36:30;96877.34;;;4.44;nan
34328;BME280;20588;48.840;10.064;2023-03-04T13:39:24;96875.44;;;4.38;nan
34328;BME280;20588;48.840;10.064;2023-03-04T13:41:53;96876.56;;;4.36;nan
34328;BME280;20588;48.840;10.064;2023-03-04T13:46:57;96886.13;;;4.26;nan
34328;BME280;20588;48.840;10.064;2023-03-04T13:49:31;96883.44;;;4.19;nan
34328;BME280;20588;48.840;10.064;2023-03-04T13:51:58;96880.09;;;4.19;nan
34328;BME280;20588;48.840;10.064;2023-03-04T13:54:44;96877.56;;;4.11;nan
34328;BME280;20588;48.840;10.064;2023-03-04T13:57:19;96882.81;;;4.09;nan
34328;BME280;20588;48.840;10.064;2023-03-04T13:59:56;96887.13;;;4.01;nan
34328;BME280;20588;48.840;10.064;2023-03-04T14:02:24;96886.31;;;4.08;nan
34328;BME280;20588;48.840;10.064;2023-03-04T14:04:57;96881.22;;;4.00;nan
34328;BME280;20588;48.840;10.064;2023-03-04T14:07:35;96891.25;;;4.02;nan
34328;BME280;20588;48.840;10.064;2023-03-04T14:10:22;96888.88;;;3.92;nan
34328;BME280;20588;48.840;10.064;2023-03-04T14:12:53;96879.34;;;3.86;nan
34328;BME280;20588;48.840;10.064;2023-03-04T14:15:24;96879.66;;;3.75;nan
34328;BME280;20588;48.840;10.064;2023-03-04T14:17:54;96875.19;;;3.69;nan
34328;BME280;20588;48.840;10.064;2023-03-04T14:20:37;96873.59;;;3.60;nan
34328;BME280;20588;48.840;10.064;2023-03-04T14:23:26;96875.19;;;3.61;nan
34328;BME280;20588;48.840;10.064;2023-03-04T14:26:05;96872.63;;;3.53;nan
34328;BME280;20588;48.840;10.064;2023-03-04T14:28:32;96863.06;;;3.47;nan
34328;BME280;20588;48.840;10.064;2023-03-04T14:30:58;96873.88;;;3.41;nan
34328;BME280;20588;48.840;10.064;2023-03-04T14:33:26;96871.66;;;3.46;nan
34328;BME280;20588;48.840;10.064;2023-03-04T14:35:55;96874.84;;;3.40;nan
34328;BME280;20588;48.840;10.064;2023-03-04T14:38:34;96872.59;;;3.37;nan
34328;BME280;20588;48.840;10.064;2023-03-04T14:41:20;96870.03;;;3.29;nan
34328;BME280;20588;48.840;10.064;2023-03-04T14:43:54;96862.09;;;3.24;nan
34328;BME280;20588;48.840;10.064;2023-03-04T14:46:24;96860.34;;;3.16;nan
34328;BME280;20588;48.840;10.064;2023-03-04T14:48:55;96858.25;;;3.12;nan
34328;BME280;20588;48.840;10.064;2023-03-04T14:51:53;96856.34;;;3.14;nan